Time;durP1;ratioP1;P1;durP2;ratioP2;P2;SDS_P1;SDS_P2;PMS_P1;PMS_P2;Temp;Humidity;BMP_temperature;BMP_pressure;BME280_temperature;BME280_humidity;BME280_pressure;Samples;Min_cycle;Max_cycle;Signal;HPM_P1;HPM_P2
2023/12/15 00:00:43;;;;;;;8.40;6.03;;;5.10;99.90;;;;;;6178652;23;20402;-59
2023/12/15 00:03:10;;;;;;;12.73;5.97;;;5.10;99.90;;;;;;6179468;23;20867;-62
2023/12/15 00:05:38;;;;;;;8.53;6.13;;;5.10;99.90;;;;;;6179146;23;20389;-61
2023/12/15 00:08:05;;;;;;;12.37;6.70;;;5.10;99.90;;;;;;6179739;23;20405;-62
2023/12/15 00:10:32;;;;;;;17.83;8.30;;;5.10;99.90;;;;;;6178222;23;20430;-61
2023/12/15 00:12:59;;;;;;;9.90;6.60;;;5.10;99.90;;;;;;6178051;23;20440;-61
2023/12/15 00:15:26;;;;;;;13.50;7.73;;;5.00;99.90;;;;;;6178328;23;20390;-59
2023/12/15 00:17:53;;;;;;;7.53;5.40;;;5.00;99.90;;;;;;6159693;23;20422;-61
2023/12/15 00:20:20;;;;;;;9.43;6.93;;;5.00;99.90;;;;;;6158885;23;20492;-62
2023/12/15 00:22:48;;;;;;;10.87;7.20;;;5.00;99.90;;;;;;6158754;23;20458;-64
2023/12/15 00:25:15;;;;;;;10.27;6.63;;;5.00;99.90;;;;;;6158451;23;20409;-61
2023/12/15 00:27:42;;;;;;;8.60;6.10;;;5.00;99.90;;;;;;6158823;23;20406;-62
2023/12/15 00:30:09;;;;;;;12.57;6.80;;;4.90;99.90;;;;;;6158768;23;20701;-61
2023/12/15 00:32:36;;;;;;;10.13;6.80;;;4.90;99.90;;;;;;6158713;23;20433;-61
2023/12/15 00:35:03;;;;;;;12.20;6.57;;;4.90;99.90;;;;;;6158994;23;20948;-63
2023/12/15 00:37:30;;;;;;;8.73;6.13;;;4.90;99.90;;;;;;6158325;23;20485;-61
2023/12/15 00:39:58;;;;;;;11.23;6.93;;;4.90;99.90;;;;;;6158657;23;20437;-61
2023/12/15 00:42:25;;;;;;;12.07;6.17;;;4.80;99.90;;;;;;6158652;23;20936;-61
2023/12/15 00:44:52;;;;;;;8.73;6.73;;;4.80;99.90;;;;;;6158645;23;20480;-61
2023/12/15 00:47:19;;;;;;;13.33;6.97;;;4.80;99.90;;;;;;6157829;23;20436;-60
2023/12/15 00:49:46;;;;;;;11.77;7.73;;;4.80;99.90;;;;;;6158059;23;20437;-61
2023/12/15 00:52:13;;;;;;;12.30;6.00;;;4.80;99.90;;;;;;6158043;23;20438;-61
2023/12/15 00:54:40;;;;;;;9.53;6.27;;;4.80;99.90;;;;;;6158603;23;20484;-60
2023/12/15 00:57:08;;;;;;;10.17;6.27;;;4.80;99.90;;;;;;6158123;23;20874;-62
2023/12/15 00:59:35;;;;;;;11.10;5.63;;;4.80;99.90;;;;;;6158375;23;20505;-62
2023/12/15 01:02:01;;;;;;;11.60;7.53;;;4.80;99.90;;;;;;6158055;23;20462;-61
2023/12/15 01:04:29;;;;;;;16.13;7.47;;;4.80;99.90;;;;;;6158020;23;20480;-60
2023/12/15 01:06:56;;;;;;;11.00;6.40;;;4.80;99.90;;;;;;6158444;23;20429;-61
2023/12/15 01:09:23;;;;;;;13.80;7.20;;;4.80;99.90;;;;;;6158376;23;20429;-61
2023/12/15 01:11:50;;;;;;;12.60;6.27;;;4.80;99.90;;;;;;6158510;23;20462;-60
2023/12/15 01:14:19;;;;;;;15.03;6.30;;;4.80;99.90;;;;;;6157874;23;20406;-62
2023/12/15 01:16:47;;;;;;;9.30;5.87;;;4.80;99.90;;;;;;6158344;23;20738;-60
2023/12/15 01:19:15;;;;;;;14.90;6.07;;;4.80;99.90;;;;;;6157921;23;20439;-61
2023/12/15 01:21:42;;;;;;;11.33;6.40;;;4.70;99.90;;;;;;6159230;23;20840;-61
2023/12/15 01:24:08;;;;;;;10.00;5.60;;;4.80;99.90;;;;;;6157782;23;20476;-62
2023/12/15 01:26:35;;;;;;;10.37;5.47;;;4.80;99.90;;;;;;6157892;23;20481;-62
2023/12/15 01:29:02;;;;;;;11.97;5.50;;;4.80;99.90;;;;;;6157785;23;20440;-61
2023/12/15 01:31:31;;;;;;;11.27;5.90;;;4.80;99.90;;;;;;6157820;23;20397;-61
2023/12/15 01:33:58;;;;;;;10.03;4.90;;;4.80;99.90;;;;;;6157753;23;20473;-60
2023/12/15 01:36:24;;;;;;;10.50;6.00;;;4.80;99.90;;;;;;6157633;23;20434;-61
2023/12/15 01:38:51;;;;;;;10.00;6.60;;;4.80;99.90;;;;;;6157702;23;20401;-62
2023/12/15 01:41:18;;;;;;;8.80;6.00;;;4.80;99.90;;;;;;6158108;23;20413;-60
2023/12/15 01:43:45;;;;;;;10.03;6.00;;;4.80;99.90;;;;;;6157701;23;20477;-62
2023/12/15 01:46:12;;;;;;;8.97;5.90;;;4.80;99.90;;;;;;6158068;23;20441;-61
2023/12/15 01:48:40;;;;;;;13.37;6.20;;;4.80;99.90;;;;;;6157957;23;20453;-61
2023/12/15 01:51:07;;;;;;;7.90;5.33;;;4.80;99.90;;;;;;6158086;23;20465;-62
2023/12/15 01:53:34;;;;;;;8.33;5.10;;;4.80;99.90;;;;;;6157923;23;20525;-62
2023/12/15 01:56:01;;;;;;;17.00;7.23;;;4.80;99.90;;;;;;6157530;23;20462;-62
2023/12/15 01:58:28;;;;;;;14.27;6.03;;;4.80;99.90;;;;;;6157538;23;20434;-62
2023/12/15 02:00:55;;;;;;;11.13;5.83;;;4.90;99.90;;;;;;6157429;23;20462;-60
2023/12/15 02:03:22;;;;;;;12.90;6.23;;;4.90;99.90;;;;;;6157579;23;20436;-61
2023/12/15 02:05:51;;;;;;;10.90;6.03;;;4.90;99.90;;;;;;6157524;23;20405;-61
2023/12/15 02:08:18;;;;;;;7.70;4.93;;;4.90;99.90;;;;;;6157920;23;20484;-61
2023/12/15 02:10:45;;;;;;;10.70;5.50;;;4.90;99.90;;;;;;6157882;23;20398;-62
2023/12/15 02:13:12;;;;;;;10.30;7.07;;;4.80;99.90;;;;;;6157213;23;20441;-62
2023/12/15 02:15:39;;;;;;;13.80;6.37;;;4.80;99.90;;;;;;6157480;23;20402;-62
2023/12/15 02:18:05;;;;;;;7.97;5.93;;;4.70;99.90;;;;;;6157814;23;20448;-62
2023/12/15 02:20:34;;;;;;;11.60;7.37;;;4.60;99.90;;;;;;6157294;23;20472;-62
2023/12/15 02:23:02;;;;;;;12.80;6.27;;;4.60;99.90;;;;;;6157446;23;20481;-62
2023/12/15 02:25:29;;;;;;;10.70;6.30;;;4.60;99.90;;;;;;6157639;23;20489;-60
2023/12/15 02:27:56;;;;;;;9.53;5.80;;;4.50;99.90;;;;;;6157781;23;20406;-62
2023/12/15 02:30:23;;;;;;;11.23;5.33;;;4.40;99.90;;;;;;6157795;23;20406;-60
2023/12/15 02:32:50;;;;;;;11.67;6.10;;;4.40;99.90;;;;;;6157553;23;20524;-63
2023/12/15 02:35:17;;;;;;;11.70;5.40;;;4.30;99.90;;;;;;6157749;23;20488;-62
2023/12/15 02:37:44;;;;;;;10.93;7.03;;;4.30;99.90;;;;;;6157591;23;20401;-62
2023/12/15 02:40:12;;;;;;;8.10;5.70;;;4.30;99.90;;;;;;6157772;23;20465;-60
2023/12/15 02:42:39;;;;;;;6.40;4.13;;;4.30;99.90;;;;;;6157723;23;20434;-62
2023/12/15 02:45:07;;;;;;;9.50;4.80;;;4.20;99.90;;;;;;6157562;23;20426;-62
2023/12/15 02:47:34;;;;;;;13.67;6.67;;;4.20;99.90;;;;;;6157657;23;20437;-62
2023/12/15 02:50:01;;;;;;;11.83;5.37;;;4.20;99.90;;;;;;6157559;23;20433;-61
2023/12/15 02:52:28;;;;;;;9.87;5.80;;;4.20;99.90;;;;;;6157213;23;20437;-62
2023/12/15 02:54:55;;;;;;;14.03;5.13;;;4.10;99.90;;;;;;6157260;23;20488;-63
2023/12/15 02:57:23;;;;;;;8.97;5.00;;;4.10;99.90;;;;;;6157134;23;20480;-60
2023/12/15 02:59:50;;;;;;;16.13;5.80;;;4.10;99.90;;;;;;6157555;23;20902;-63
2023/12/15 03:02:17;;;;;;;10.00;5.20;;;4.10;99.90;;;;;;6157577;23;20426;-61
2023/12/15 03:04:43;;;;;;;12.90;5.47;;;4.00;99.90;;;;;;6157199;23;20485;-60
2023/12/15 03:07:10;;;;;;;10.50;5.13;;;3.90;99.90;;;;;;6157083;23;20481;-61
2023/12/15 03:09:37;;;;;;;12.33;5.70;;;3.80;99.90;;;;;;6157445;23;20508;-62
2023/12/15 03:12:05;;;;;;;10.40;6.37;;;3.80;99.90;;;;;;6158693;23;20405;-61
2023/12/15 03:14:33;;;;;;;9.77;6.70;;;3.70;99.90;;;;;;6158953;23;20452;-60
2023/12/15 03:17:00;;;;;;;8.03;4.83;;;3.60;99.90;;;;;;6159064;23;20435;-62
2023/12/15 03:19:27;;;;;;;10.67;6.20;;;3.60;99.90;;;;;;6159432;23;20480;-63
2023/12/15 03:21:54;;;;;;;9.57;5.27;;;3.50;99.90;;;;;;6158839;23;20436;-60
2023/12/15 03:24:21;;;;;;;10.63;5.87;;;3.50;99.90;;;;;;6159038;23;20404;-62
2023/12/15 03:26:47;;;;;;;10.30;5.40;;;3.50;99.90;;;;;;6159325;23;20485;-61
2023/12/15 03:29:14;;;;;;;13.97;6.57;;;3.50;99.90;;;;;;6158919;23;20485;-60
2023/12/15 03:31:42;;;;;;;10.17;6.07;;;3.40;99.90;;;;;;6159002;23;20433;-62
2023/12/15 03:34:09;;;;;;;7.87;5.80;;;3.30;99.90;;;;;;6158774;23;20939;-62
2023/12/15 03:36:38;;;;;;;12.53;5.20;;;3.30;99.90;;;;;;6159262;23;20433;-61
2023/12/15 03:39:05;;;;;;;11.27;5.30;;;3.30;99.90;;;;;;6159248;23;20405;-62
2023/12/15 03:41:32;;;;;;;9.30;6.20;;;3.30;99.90;;;;;;6158955;23;20762;-62
2023/12/15 03:43:59;;;;;;;10.70;6.33;;;3.30;99.90;;;;;;6159233;23;20661;-61
2023/12/15 03:46:26;;;;;;;10.53;5.67;;;3.20;99.90;;;;;;6159174;23;20513;-60
2023/12/15 03:48:55;;;;;;;9.10;5.50;;;3.20;99.90;;;;;;6159227;23;20413;-62
2023/12/15 03:51:21;;;;;;;15.53;6.57;;;3.20;99.90;;;;;;6159120;23;20417;-60
2023/12/15 03:53:48;;;;;;;13.20;6.20;;;3.10;99.90;;;;;;6158573;23;20481;-62
2023/12/15 03:56:24;;;;;;;16.53;8.67;;;3.10;99.90;;;;;;6159099;23;20433;-61
2023/12/15 03:58:51;;;;;;;10.30;5.67;;;3.50;99.90;;;;;;6159099;23;20504;-62
2023/12/15 04:01:18;;;;;;;11.73;6.40;;;3.10;99.90;;;;;;6159198;23;20497;-61
2023/12/15 04:03:46;;;;;;;9.43;5.67;;;3.10;99.90;;;;;;6159116;23;20405;-60
2023/12/15 04:06:14;;;;;;;12.50;6.23;;;3.00;99.90;;;;;;6159012;23;20432;-62
2023/12/15 04:08:42;;;;;;;12.83;5.53;;;3.00;99.90;;;;;;6158632;23;20401;-61
2023/12/15 04:11:09;;;;;;;9.83;5.37;;;2.90;99.90;;;;;;6158897;23;20440;-62
2023/12/15 04:13:36;;;;;;;9.67;6.53;;;2.90;99.90;;;;;;6158529;23;20528;-59
2023/12/15 04:16:05;;;;;;;12.10;6.73;;;2.90;99.90;;;;;;6158942;23;20434;-57
2023/12/15 04:18:32;;;;;;;11.13;6.90;;;2.90;99.90;;;;;;6158538;23;20416;-60
2023/12/15 04:21:00;;;;;;;13.33;6.50;;;2.90;99.90;;;;;;6158868;23;20418;-60
2023/12/15 04:23:28;;;;;;;13.13;6.30;;;2.90;99.90;;;;;;6158669;23;20422;-61
2023/12/15 04:25:57;;;;;;;12.30;7.57;;;3.00;99.90;;;;;;6158468;23;20412;-61
2023/12/15 04:28:24;;;;;;;13.20;6.97;;;3.00;99.90;;;;;;6158425;23;20915;-62
2023/12/15 04:30:52;;;;;;;12.20;6.57;;;2.90;99.90;;;;;;6158720;23;20453;-61
2023/12/15 04:33:18;;;;;;;11.50;5.50;;;3.00;99.90;;;;;;6158660;23;20512;-61
2023/12/15 04:35:45;;;;;;;8.40;6.13;;;3.00;99.90;;;;;;6158631;23;20497;-61
2023/12/15 04:38:12;;;;;;;10.80;6.10;;;3.00;99.90;;;;;;6158809;23;20490;-61
2023/12/15 04:40:40;;;;;;;12.97;6.40;;;3.10;99.90;;;;;;6158689;23;20492;-63
2023/12/15 04:43:07;;;;;;;8.83;5.70;;;3.10;99.90;;;;;;6158183;23;20951;-61
2023/12/15 04:45:34;;;;;;;9.57;6.07;;;3.00;99.90;;;;;;6159152;23;20402;-61
2023/12/15 04:48:01;;;;;;;9.90;5.57;;;3.00;99.90;;;;;;6158126;23;20426;-61
2023/12/15 04:50:28;;;;;;;10.40;7.37;;;3.00;99.90;;;;;;6159209;23;20852;-62
2023/12/15 04:52:55;;;;;;;13.57;5.43;;;3.10;99.90;;;;;;6158596;23;20703;-61
2023/12/15 04:55:21;;;;;;;10.70;5.90;;;3.10;99.90;;;;;;6158398;23;20516;-61
2023/12/15 04:57:49;;;;;;;11.17;6.37;;;3.00;99.90;;;;;;6158386;23;20484;-62
2023/12/15 05:00:16;;;;;;;16.40;6.73;;;3.00;99.90;;;;;;6158343;23;20552;-61
2023/12/15 05:02:43;;;;;;;12.90;6.57;;;3.00;99.90;;;;;;6158228;23;20429;-61
2023/12/15 05:05:10;;;;;;;13.93;6.80;;;3.10;99.90;;;;;;6158070;23;20486;-61
2023/12/15 05:07:37;;;;;;;13.27;6.07;;;3.10;99.90;;;;;;6158380;23;20438;-61
2023/12/15 05:10:04;;;;;;;13.00;5.97;;;3.10;99.90;;;;;;6158388;23;20877;-61
2023/12/15 05:12:34;;;;;;;9.97;5.73;;;3.00;99.90;;;;;;6158219;23;20912;-61
2023/12/15 05:15:02;;;;;;;11.13;6.83;;;3.00;99.90;;;;;;6158038;23;20430;-59
2023/12/15 05:17:30;;;;;;;13.63;5.50;;;3.10;99.90;;;;;;6158290;23;20426;-61
2023/12/15 05:19:56;;;;;;;10.73;5.10;;;3.00;99.90;;;;;;6157904;23;20402;-61
2023/12/15 05:22:24;;;;;;;10.87;5.77;;;3.10;99.90;;;;;;6157875;23;20493;-60
2023/12/15 05:24:51;;;;;;;9.37;5.80;;;3.10;99.90;;;;;;6158558;23;20484;-61
2023/12/15 05:27:18;;;;;;;19.63;6.40;;;3.10;99.90;;;;;;6158144;23;20402;-60
2023/12/15 05:29:46;;;;;;;12.87;6.00;;;3.10;99.90;;;;;;6157782;23;20457;-61
2023/12/15 05:32:17;;;;;;;10.63;5.60;;;3.10;99.90;;;;;;6158595;23;20414;-61
2023/12/15 05:34:44;;;;;;;11.87;6.70;;;3.00;99.90;;;;;;6157367;23;20535;-61
2023/12/15 05:37:12;;;;;;;11.13;5.20;;;3.00;99.90;;;;;;6158062;23;20402;-60
2023/12/15 05:39:42;;;;;;;12.30;5.63;;;2.90;99.90;;;;;;6157676;23;20412;-60
2023/12/15 05:42:08;;;;;;;14.43;6.87;;;2.80;99.90;;;;;;6158183;23;20390;-62
2023/12/15 05:44:39;;;;;;;16.60;5.67;;;2.80;99.90;;;;;;6158147;23;20398;-61
2023/12/15 05:47:06;;;;;;;10.93;6.10;;;2.70;99.90;;;;;;6158024;23;20453;-61
2023/12/15 05:49:34;;;;;;;12.60;5.83;;;2.70;99.90;;;;;;6159656;23;20801;-60
2023/12/15 05:52:01;;;;;;;15.67;7.20;;;2.70;99.90;;;;;;6157991;23;20457;-61
2023/12/15 05:54:28;;;;;;;12.20;5.70;;;2.70;99.90;;;;;;6157974;23;20460;-59
2023/12/15 05:56:55;;;;;;;11.23;7.10;;;2.80;99.90;;;;;;6157503;23;20458;-61
2023/12/15 05:59:22;;;;;;;11.60;5.13;;;2.80;99.90;;;;;;6157649;23;20390;-59
2023/12/15 06:01:49;;;;;;;15.60;6.10;;;2.80;99.90;;;;;;6157919;23;20401;-60
2023/12/15 06:04:16;;;;;;;14.27;7.00;;;2.80;99.90;;;;;;6158006;23;20529;-60
2023/12/15 06:06:44;;;;;;;14.53;6.90;;;3.10;99.90;;;;;;6157872;23;20440;-60
2023/12/15 06:09:11;;;;;;;10.30;6.63;;;3.00;99.90;;;;;;6157358;23;20461;-61
2023/12/15 06:11:41;;;;;;;11.33;6.10;;;3.10;99.90;;;;;;6157818;23;20484;-60
2023/12/15 06:14:08;;;;;;;14.47;6.60;;;3.10;99.90;;;;;;6157457;23;20449;-60
2023/12/15 06:16:35;;;;;;;16.80;7.90;;;3.10;99.90;;;;;;6157814;23;20425;-60
2023/12/15 06:19:02;;;;;;;17.70;7.90;;;3.20;99.90;;;;;;6158128;23;20864;-61
2023/12/15 06:21:30;;;;;;;13.20;7.07;;;3.20;99.90;;;;;;6157888;23;20406;-60
2023/12/15 06:23:58;;;;;;;16.40;8.23;;;3.30;99.90;;;;;;6157807;23;20398;-61
2023/12/15 06:26:26;;;;;;;11.73;6.93;;;3.30;99.90;;;;;;6157677;23;20500;-61
2023/12/15 06:28:54;;;;;;;14.27;7.70;;;3.40;99.90;;;;;;6157803;23;20477;-61
2023/12/15 06:31:21;;;;;;;19.13;8.30;;;3.40;99.90;;;;;;6157761;23;20426;-62
2023/12/15 06:33:48;;;;;;;11.27;6.80;;;3.40;99.90;;;;;;6157701;23;20440;-61
2023/12/15 06:36:15;;;;;;;14.27;8.13;;;3.50;99.90;;;;;;6157777;23;20406;-61
2023/12/15 06:38:45;;;;;;;14.90;7.60;;;3.60;99.90;;;;;;6157835;23;20908;-59
2023/12/15 06:41:13;;;;;;;13.13;6.40;;;3.60;99.90;;;;;;6157720;23;20412;-60
2023/12/15 06:43:41;;;;;;;17.30;8.07;;;3.60;99.90;;;;;;6157595;23;20517;-60
2023/12/15 06:46:08;;;;;;;15.17;7.77;;;3.60;99.90;;;;;;6158276;23;20433;-63
2023/12/15 06:48:35;;;;;;;19.43;9.13;;;3.60;99.90;;;;;;6159713;23;20508;-61
2023/12/15 06:51:02;;;;;;;21.67;9.63;;;3.60;99.90;;;;;;6159732;23;20441;-61
2023/12/15 06:53:29;;;;;;;13.47;8.00;;;3.70;99.90;;;;;;6159207;23;20437;-62
2023/12/15 06:55:58;;;;;;;20.53;10.27;;;3.70;99.90;;;;;;6159392;23;20907;-62
2023/12/15 06:58:26;;;;;;;18.20;8.10;;;3.70;99.90;;;;;;6159728;23;20405;-60
2023/12/15 07:00:54;;;;;;;13.00;6.63;;;3.70;99.90;;;;;;6159531;23;20426;-61
2023/12/15 07:03:21;;;;;;;16.87;9.50;;;3.80;99.90;;;;;;6159413;23;20405;-63
2023/12/15 07:05:47;;;;;;;17.67;8.17;;;3.80;99.90;;;;;;6159683;23;20448;-59
2023/12/15 07:08:14;;;;;;;13.20;8.07;;;3.80;99.90;;;;;;6159930;23;20448;-61
2023/12/15 07:10:41;;;;;;;11.47;7.20;;;3.80;99.90;;;;;;6159257;23;20468;-59
2023/12/15 07:13:08;;;;;;;17.83;8.40;;;3.80;99.90;;;;;;6159827;23;20409;-59
2023/12/15 07:15:36;;;;;;;11.60;7.23;;;3.90;99.90;;;;;;6159212;23;20492;-60
2023/12/15 07:18:03;;;;;;;22.20;8.33;;;3.90;99.90;;;;;;6159108;23;20437;-56
2023/12/15 07:20:30;;;;;;;16.20;7.33;;;3.90;99.90;;;;;;6159088;23;20931;-59
2023/12/15 07:22:57;;;;;;;20.13;10.37;;;3.90;99.90;;;;;;6159651;23;20445;-61
2023/12/15 07:25:25;;;;;;;17.73;8.10;;;3.90;99.90;;;;;;6159106;23;20422;-60
2023/12/15 07:27:53;;;;;;;18.80;9.90;;;4.00;99.90;;;;;;6159200;23;20382;-60
2023/12/15 07:30:20;;;;;;;15.03;8.43;;;4.00;99.90;;;;;;6158980;23;20409;-60
2023/12/15 07:32:48;;;;;;;19.07;9.57;;;4.00;99.90;;;;;;6158884;23;20389;-61
2023/12/15 07:35:15;;;;;;;17.97;9.83;;;4.00;99.90;;;;;;6159210;23;20949;-61
2023/12/15 07:37:42;;;;;;;18.00;7.77;;;4.10;99.90;;;;;;6158823;23;20434;-61
2023/12/15 07:40:10;;;;;;;16.43;7.83;;;4.10;99.90;;;;;;6160246;23;20449;-60
2023/12/15 07:42:37;;;;;;;19.23;8.43;;;4.10;99.90;;;;;;6159283;23;20748;-60
2023/12/15 07:45:05;;;;;;;21.40;8.20;;;4.10;99.90;;;;;;6159251;23;20480;-59
2023/12/15 07:47:32;;;;;;;18.90;9.07;;;4.10;99.90;;;;;;6158785;23;20430;-60
2023/12/15 07:50:00;;;;;;;21.80;9.50;;;4.00;99.90;;;;;;6159208;23;20402;-60
2023/12/15 07:52:27;;;;;;;18.90;9.30;;;3.90;99.90;;;;;;6159070;23;20426;-61
2023/12/15 07:54:54;;;;;;;17.27;8.60;;;3.90;99.90;;;;;;6159086;23;20437;-61
2023/12/15 07:57:21;;;;;;;14.90;7.30;;;3.90;99.90;;;;;;6158369;23;20436;-61
2023/12/15 07:59:47;;;;;;;18.50;9.57;;;3.90;99.90;;;;;;6159148;23;20402;-59
2023/12/15 08:02:17;;;;;;;20.00;9.57;;;3.90;99.90;;;;;;6158916;23;20472;-60
2023/12/15 08:04:44;;;;;;;21.73;11.43;;;3.90;99.90;;;;;;6159066;23;20484;-61
2023/12/15 08:07:12;;;;;;;15.63;9.10;;;3.90;99.90;;;;;;6158924;23;20508;-59
2023/12/15 08:09:39;;;;;;;19.00;9.10;;;4.00;99.90;;;;;;6159331;23;20402;-61
2023/12/15 08:12:06;;;;;;;21.10;10.47;;;4.00;99.90;;;;;;6159055;23;20425;-59
2023/12/15 08:14:33;;;;;;;19.67;9.43;;;4.00;99.90;;;;;;6158781;23;20492;-56
2023/12/15 08:17:00;;;;;;;22.17;8.27;;;4.00;99.90;;;;;;6158815;23;20537;-61
2023/12/15 08:19:29;;;;;;;19.00;9.00;;;4.00;99.90;;;;;;6158859;23;20488;-62
2023/12/15 08:21:56;;;;;;;18.53;8.97;;;4.10;99.90;;;;;;6158942;23;20741;-61
2023/12/15 08:24:24;;;;;;;23.30;10.80;;;4.10;99.90;;;;;;6159375;23;20429;-64
2023/12/15 08:26:53;;;;;;;20.83;10.10;;;4.10;99.90;;;;;;6158868;23;20732;-61
2023/12/15 08:29:20;;;;;;;22.43;9.37;;;4.00;99.90;;;;;;6158483;23;20406;-61
2023/12/15 08:31:48;;;;;;;19.33;9.20;;;4.10;99.90;;;;;;6158375;23;20398;-61
2023/12/15 08:34:15;;;;;;;22.13;9.27;;;4.00;99.90;;;;;;6158510;23;20433;-59
2023/12/15 08:36:42;;;;;;;25.90;10.10;;;4.00;99.90;;;;;;6158863;23;20697;-60
2023/12/15 08:39:09;;;;;;;15.67;8.80;;;4.10;99.90;;;;;;6158643;23;20425;-62
2023/12/15 08:41:38;;;;;;;23.40;10.33;;;4.10;99.90;;;;;;6158617;23;20739;-62
2023/12/15 08:44:05;;;;;;;25.00;11.23;;;4.10;99.90;;;;;;6158508;23;20429;-61
2023/12/15 08:46:32;;;;;;;26.67;11.93;;;4.10;99.90;;;;;;6158512;23;20484;-61
2023/12/15 08:48:59;;;;;;;26.30;10.40;;;4.20;99.90;;;;;;6157978;23;20401;-62
2023/12/15 08:51:25;;;;;;;25.07;10.77;;;4.20;99.90;;;;;;6158103;23;20429;-63
2023/12/15 08:53:52;;;;;;;20.20;10.63;;;4.20;99.90;;;;;;6158016;23;20869;-62
2023/12/15 08:56:19;;;;;;;29.13;12.53;;;4.10;99.90;;;;;;6158098;23;20529;-61
2023/12/15 08:58:47;;;;;;;23.73;11.13;;;4.20;99.90;;;;;;6158290;23;20413;-61
2023/12/15 09:01:14;;;;;;;28.33;10.27;;;4.20;99.90;;;;;;6158294;23;20477;-60
2023/12/15 09:03:41;;;;;;;28.33;11.80;;;4.20;99.90;;;;;;6158402;23;20429;-60
2023/12/15 09:06:11;;;;;;;25.63;11.10;;;4.20;99.90;;;;;;6157914;23;20469;-58
2023/12/15 09:08:38;;;;;;;28.77;13.20;;;4.20;99.90;;;;;;6157925;23;20397;-61
2023/12/15 09:11:06;;;;;;;23.93;11.90;;;5.30;99.90;;;;;;6158470;23;20409;-63
2023/12/15 09:13:33;;;;;;;25.20;11.97;;;6.10;99.90;;;;;;6158585;23;20472;-62
2023/12/15 09:16:01;;;;;;;28.50;11.80;;;6.00;99.90;;;;;;6183272;23;20445;-60
2023/12/15 09:18:28;;;;;;;21.37;10.43;;;5.70;99.90;;;;;;6181869;23;20430;-60
2023/12/15 09:20:55;;;;;;;22.60;11.50;;;5.50;99.90;;;;;;6169197;23;20405;-63
2023/12/15 09:23:22;;;;;;;22.43;10.83;;;5.30;99.90;;;;;;6176749;23;20426;-63
2023/12/15 09:25:50;;;;;;;15.80;8.77;;;5.20;99.90;;;;;;6174795;23;20390;-62
2023/12/15 09:28:17;;;;;;;20.70;10.13;;;5.10;99.90;;;;;;6173359;23;20498;-65
2023/12/15 09:30:44;;;;;;;22.97;11.30;;;5.00;99.90;;;;;;6165352;23;20430;-60
2023/12/15 09:33:12;;;;;;;21.33;11.30;;;5.00;99.90;;;;;;6168944;23;20493;-58
2023/12/15 09:35:39;;;;;;;28.60;9.67;;;4.90;99.90;;;;;;6163331;23;20938;-61
2023/12/15 09:38:06;;;;;;;29.53;10.40;;;4.80;99.90;;;;;;6164121;23;20738;-63
2023/12/15 09:40:34;;;;;;;24.47;9.90;;;4.80;99.90;;;;;;6163898;23;20433;-64
2023/12/15 09:43:01;;;;;;;20.93;10.37;;;4.80;99.90;;;;;;6164503;23;20907;-62
2023/12/15 09:45:29;;;;;;;18.47;9.50;;;4.90;99.90;;;;;;6165284;23;20484;-63
2023/12/15 09:47:57;;;;;;;17.17;8.80;;;4.80;99.90;;;;;;6162451;23;20433;-62
2023/12/15 09:50:30;;;;;;;26.03;11.73;;;5.40;99.90;;;;;;6163517;23;20607;-60
2023/12/15 09:52:57;;;;;;;23.70;12.23;;;5.40;99.90;;;;;;6163772;23;20390;-63
2023/12/15 09:55:24;;;;;;;20.13;10.13;;;5.40;99.90;;;;;;6163477;23;20441;-62
2023/12/15 09:57:51;;;;;;;19.80;9.73;;;5.30;99.90;;;;;;6160796;23;20412;-64
2023/12/15 10:00:19;;;;;;;29.73;11.73;;;5.40;99.90;;;;;;6157812;23;20793;-63
2023/12/15 10:02:45;;;;;;;19.87;10.60;;;5.40;99.90;;;;;;6159089;23;20944;-61
2023/12/15 10:05:14;;;;;;;22.37;11.53;;;5.30;99.90;;;;;;6157364;23;20406;-63
2023/12/15 10:07:42;;;;;;;20.70;10.53;;;5.40;99.90;;;;;;6157355;23;20457;-61
2023/12/15 10:10:11;;;;;;;20.70;10.00;;;5.30;99.90;;;;;;6157521;23;20916;-62
2023/12/15 10:12:38;;;;;;;22.37;11.27;;;5.40;99.90;;;;;;6157652;23;20417;-61
2023/12/15 10:15:06;;;;;;;21.33;10.20;;;5.40;99.90;;;;;;6157556;23;20476;-63
2023/12/15 10:17:33;;;;;;;19.10;10.37;;;5.40;99.90;;;;;;6157903;23;20410;-62
2023/12/15 10:20:08;;;;;;;26.83;9.90;;;5.40;99.90;;;;;;6164034;23;20434;-58
2023/12/15 10:22:36;;;;;;;24.37;10.43;;;5.40;99.90;;;;;;6184358;23;20385;-61
2023/12/15 10:25:16;;;;;;;21.57;11.50;;;5.50;99.90;;;;;;6184528;23;20405;-57
2023/12/15 10:27:43;;;;;;;20.00;8.40;;;5.40;99.90;;;;;;6167615;23;20960;-63
2023/12/15 10:30:11;;;;;;;22.90;11.60;;;5.40;99.90;;;;;;6157476;23;20402;-61
2023/12/15 10:32:38;;;;;;;23.73;10.00;;;5.40;99.90;;;;;;6157438;23;20749;-64
2023/12/15 10:35:06;;;;;;;22.60;9.80;;;5.30;99.90;;;;;;6157255;23;20529;-62
2023/12/15 10:37:33;;;;;;;22.23;10.30;;;5.30;99.90;;;;;;6157726;23;20406;-61
2023/12/15 10:40:06;;;;;;;25.53;12.10;;;5.30;99.90;;;;;;6163495;23;20418;-57
2023/12/15 10:42:33;;;;;;;26.03;11.40;;;5.20;99.90;;;;;;6184504;23;20363;-57
2023/12/15 10:45:01;;;;;;;24.63;11.67;;;5.20;99.90;;;;;;6184355;23;20390;-63
2023/12/15 10:47:28;;;;;;;22.70;9.87;;;5.30;99.90;;;;;;6184214;23;20402;-55
2023/12/15 10:49:57;;;;;;;19.63;9.93;;;5.30;99.90;;;;;;6184164;23;20393;-62
2023/12/15 10:52:26;;;;;;;22.60;10.60;;;5.20;99.90;;;;;;6167013;23;20813;-63
2023/12/15 10:54:53;;;;;;;19.67;10.33;;;5.20;99.90;;;;;;6166302;23;20475;-62
2023/12/15 10:57:22;;;;;;;26.03;11.40;;;5.20;99.90;;;;;;6171429;23;20401;-63
2023/12/15 10:59:50;;;;;;;15.27;10.13;;;5.20;99.90;;;;;;6173593;23;20920;-62
2023/12/15 11:02:19;;;;;;;21.53;9.97;;;5.20;99.90;;;;;;6157240;23;20509;-63
2023/12/15 11:04:48;;;;;;;23.10;10.20;;;5.10;99.90;;;;;;6157626;23;20412;-63
2023/12/15 11:07:19;;;;;;;23.30;9.47;;;5.20;99.90;;;;;;6160705;23;20426;-61
2023/12/15 11:09:46;;;;;;;19.90;10.67;;;5.20;99.90;;;;;;6161286;23;20398;-62
2023/12/15 11:12:22;;;;;;;17.77;9.23;;;5.20;99.90;;;;;;6161586;23;20465;-62
2023/12/15 11:14:57;;;;;;;19.83;10.60;;;5.20;99.90;;;;;;6162151;23;20658;-62
2023/12/15 11:17:24;;;;;;;25.63;9.90;;;5.30;99.90;;;;;;6162408;23;20381;-62
2023/12/15 11:19:52;;;;;;;20.47;11.17;;;5.30;99.90;;;;;;6161995;23;20433;-62
2023/12/15 11:22:19;;;;;;;25.97;12.20;;;5.90;99.90;;;;;;6161620;23;20390;-61
2023/12/15 11:24:46;;;;;;;23.30;11.00;;;5.30;99.90;;;;;;6161572;23;20429;-62
2023/12/15 11:27:14;;;;;;;25.23;11.30;;;5.30;99.90;;;;;;6161031;23;20454;-64
2023/12/15 11:29:42;;;;;;;22.30;11.20;;;5.30;99.90;;;;;;6162394;23;20408;-63
2023/12/15 11:32:33;;;;;;;18.93;11.07;;;5.30;99.90;;;;;;6161660;23;20452;-62
2023/12/15 11:35:00;;;;;;;22.07;10.33;;;5.30;99.90;;;;;;6163386;23;20401;-63
2023/12/15 11:37:28;;;;;;;21.57;9.30;;;5.30;99.90;;;;;;6163535;23;20473;-63
2023/12/15 11:39:56;;;;;;;22.17;10.80;;;5.20;99.90;;;;;;6163199;23;20934;-62
2023/12/15 11:42:23;;;;;;;24.43;12.33;;;5.20;99.90;;;;;;6163732;23;20432;-62
2023/12/15 11:44:52;;;;;;;22.03;11.33;;;5.10;99.90;;;;;;6163323;23;20416;-62
2023/12/15 11:47:19;;;;;;;30.00;13.47;;;5.20;99.90;;;;;;6163275;23;20738;-63
2023/12/15 11:49:46;;;;;;;18.20;10.20;;;5.10;99.90;;;;;;6163170;23;20513;-61
2023/12/15 11:52:14;;;;;;;29.30;11.63;;;5.10;99.90;;;;;;6163512;23;20456;-63
2023/12/15 11:54:41;;;;;;;20.27;10.13;;;5.10;99.90;;;;;;6163149;23;20409;-62
2023/12/15 11:57:08;;;;;;;28.10;12.83;;;5.10;99.90;;;;;;6162989;23;20486;-62
2023/12/15 11:59:36;;;;;;;25.77;11.67;;;5.10;99.90;;;;;;6163148;23;20434;-62
2023/12/15 12:02:06;;;;;;;25.63;11.87;;;5.20;99.90;;;;;;6163593;23;20406;-60
2023/12/15 12:04:33;;;;;;;22.23;11.40;;;5.20;99.90;;;;;;6163160;23;20416;-63
2023/12/15 12:07:00;;;;;;;26.40;12.50;;;5.20;99.90;;;;;;6163023;23;20449;-61
2023/12/15 12:09:30;;;;;;;31.00;13.33;;;5.20;99.90;;;;;;6162965;23;20410;-62
2023/12/15 12:11:57;;;;;;;25.10;12.07;;;5.30;99.90;;;;;;6162551;23;20402;-63
2023/12/15 12:14:27;;;;;;;36.33;13.40;;;5.30;99.90;;;;;;6162586;23;20665;-63
2023/12/15 12:16:55;;;;;;;28.20;11.00;;;5.40;99.90;;;;;;6163559;23;20884;-63
2023/12/15 12:19:23;;;;;;;27.77;13.50;;;5.40;99.90;;;;;;6162497;23;20434;-62
2023/12/15 12:21:54;;;;;;;29.90;13.77;;;5.40;99.90;;;;;;6162460;23;20402;-63
2023/12/15 12:24:20;;;;;;;26.90;11.57;;;5.40;99.90;;;;;;6162706;23;20387;-64
2023/12/15 12:26:48;;;;;;;21.30;11.10;;;5.30;99.90;;;;;;6163007;23;20457;-62
2023/12/15 12:29:15;;;;;;;30.60;12.73;;;5.40;99.90;;;;;;6163206;23;20771;-63
2023/12/15 12:31:42;;;;;;;34.57;13.50;;;5.40;99.90;;;;;;6162903;23;20416;-61
2023/12/15 12:34:09;;;;;;;27.60;11.83;;;5.40;99.90;;;;;;6163037;23;20405;-62
2023/12/15 12:36:37;;;;;;;25.70;11.23;;;5.30;99.90;;;;;;6162368;23;20471;-62
2023/12/15 12:39:06;;;;;;;29.30;12.27;;;5.40;99.90;;;;;;6162959;23;20469;-61
2023/12/15 12:41:34;;;;;;;31.07;12.53;;;5.40;99.90;;;;;;6162430;23;20428;-59
2023/12/15 12:44:00;;;;;;;21.13;11.00;;;5.40;99.90;;;;;;6162636;23;20716;-61
2023/12/15 12:46:27;;;;;;;28.90;12.13;;;5.40;99.90;;;;;;6161983;23;20433;-64